createdAt,value
2019-05-22T00:00:29.053Z,11.90
2019-05-22T00:02:59.295Z,10.23
2019-05-22T00:05:31.984Z,10.23
2019-05-22T00:08:02.423Z,10.63
2019-05-22T00:10:32.969Z,9.93
2019-05-22T00:13:03.397Z,10.30
2019-05-22T00:15:33.456Z,10.20
2019-05-22T00:18:02.942Z,9.93
2019-05-22T00:20:31.517Z,8.90
2019-05-22T00:23:04.082Z,9.77
2019-05-22T00:25:35.032Z,8.00
2019-05-22T00:28:04.602Z,8.90
2019-05-22T00:30:34.741Z,9.10
2019-05-22T00:33:05.869Z,9.30
2019-05-22T00:35:36.827Z,9.87
2019-05-22T00:38:07.152Z,8.63
2019-05-22T00:40:37.934Z,8.53
2019-05-22T00:43:13.742Z,9.57
2019-05-22T00:45:38.149Z,9.00
2019-05-22T00:48:07.814Z,9.40
2019-05-22T00:50:53.311Z,8.93
2019-05-22T00:53:42.513Z,9.30
2019-05-22T00:56:17.073Z,7.53
2019-05-22T00:59:01.273Z,9.00
2019-05-22T01:01:32.318Z,7.83
2019-05-22T01:04:02.442Z,7.90
2019-05-22T01:06:32.509Z,9.27
2019-05-22T01:09:04.410Z,9.53
2019-05-22T01:11:33.895Z,9.27
2019-05-22T01:14:04.315Z,10.67
2019-05-22T01:16:33.885Z,9.10
2019-05-22T01:19:03.035Z,10.73
2019-05-22T01:21:33.243Z,9.50
2019-05-22T01:24:03.863Z,8.80
2019-05-22T01:26:34.123Z,9.10
2019-05-22T01:29:02.681Z,8.37
2019-05-22T01:31:32.839Z,8.37
2019-05-22T01:34:05.619Z,9.10
2019-05-22T01:36:35.674Z,9.00
2019-05-22T01:39:17.443Z,9.90
2019-05-22T01:41:50.359Z,9.93
2019-05-22T01:44:20.420Z,10.03
2019-05-22T01:46:50.684Z,8.70
2019-05-22T01:49:19.104Z,9.30
2019-05-22T01:51:48.007Z,9.73
2019-05-22T01:54:18.112Z,9.80
2019-05-22T01:56:46.704Z,9.97
2019-05-22T01:59:15.199Z,8.73
2019-05-22T02:01:45.296Z,7.70
2019-05-22T02:04:15.082Z,9.87
2019-05-22T02:06:44.664Z,8.00
2019-05-22T02:09:23.881Z,7.40
2019-05-22T02:12:02.718Z,7.87
2019-05-22T02:14:32.370Z,8.13
2019-05-22T02:17:01.484Z,8.73
2019-05-22T02:19:30.388Z,8.10
2019-05-22T02:21:59.705Z,7.57
2019-05-22T02:24:28.658Z,7.37
2019-05-22T02:26:58.528Z,7.17
2019-05-22T02:29:26.948Z,3.67
2019-05-22T02:31:58.333Z,4.87
2019-05-22T02:34:28.257Z,6.20
2019-05-22T02:36:57.761Z,6.70
2019-05-22T02:39:32.485Z,5.87
2019-05-22T02:42:05.275Z,5.87
2019-05-22T02:44:35.410Z,6.53
2019-05-22T02:47:18.370Z,6.57
2019-05-22T02:49:35.801Z,6.30
2019-05-22T02:52:06.387Z,6.33
2019-05-22T02:54:35.889Z,6.60
2019-05-22T02:57:06.720Z,6.93
2019-05-22T02:59:35.793Z,6.07
2019-05-22T03:02:06.859Z,6.20
2019-05-22T03:04:56.185Z,6.10
2019-05-22T03:07:25.642Z,4.30
2019-05-22T03:09:55.017Z,4.90
2019-05-22T03:12:24.296Z,4.20
2019-05-22T03:14:52.790Z,4.70
2019-05-22T03:17:27.790Z,5.70
2019-05-22T03:19:57.783Z,5.57
2019-05-22T03:22:33.501Z,6.43
2019-05-22T03:25:05.201Z,5.13
2019-05-22T03:27:47.882Z,6.80
2019-05-22T03:30:32.615Z,7.20
2019-05-22T03:33:02.430Z,5.40
2019-05-22T03:35:35.008Z,5.60
2019-05-22T03:38:04.842Z,6.67
2019-05-22T03:40:37.560Z,6.10
2019-05-22T03:43:24.630Z,6.43
2019-05-22T03:45:56.098Z,5.10
2019-05-22T03:48:25.100Z,7.00
2019-05-22T03:50:59.748Z,5.87
2019-05-22T03:53:28.247Z,5.00
2019-05-22T03:55:57.696Z,5.90
2019-05-22T03:58:26.277Z,5.53
2019-05-22T04:00:56.542Z,6.17
2019-05-22T04:03:26.274Z,7.00
2019-05-22T04:05:55.949Z,6.10
2019-05-22T04:08:26.749Z,6.17
2019-05-22T04:11:02.008Z,6.17
2019-05-22T04:13:31.970Z,5.83
2019-05-22T04:16:03.130Z,6.17
2019-05-22T04:18:32.658Z,6.03
2019-05-22T04:21:03.303Z,6.43
2019-05-22T04:23:32.386Z,5.57
2019-05-22T04:26:02.005Z,4.93
2019-05-22T04:28:31.132Z,6.47
2019-05-22T04:31:00.193Z,7.03
2019-05-22T04:33:30.619Z,6.60
2019-05-22T04:36:00.656Z,6.73
2019-05-22T04:38:29.675Z,6.30
2019-05-22T04:40:59.743Z,6.20
2019-05-22T04:43:32.107Z,6.93
2019-05-22T04:46:00.724Z,7.53
2019-05-22T04:48:31.476Z,6.00
2019-05-22T04:51:03.820Z,7.90
2019-05-22T04:53:32.620Z,8.47
2019-05-22T04:56:01.298Z,9.60
2019-05-22T04:58:30.104Z,9.03
2019-05-22T05:00:58.982Z,6.90
2019-05-22T05:03:28.525Z,8.93
2019-05-22T05:05:57.314Z,8.73
2019-05-22T05:08:26.084Z,8.13
2019-05-22T05:10:56.065Z,8.70
2019-05-22T05:13:26.424Z,7.00
2019-05-22T05:15:54.926Z,7.83
2019-05-22T05:18:23.409Z,6.37
2019-05-22T05:20:52.112Z,6.40
2019-05-22T05:23:20.586Z,7.87
2019-05-22T05:25:49.757Z,7.10
2019-05-22T05:28:19.333Z,7.10
2019-05-22T05:30:48.117Z,7.87
2019-05-22T05:33:17.324Z,7.43
2019-05-22T05:35:46.032Z,7.20
2019-05-22T05:38:15.739Z,7.30
2019-05-22T05:40:45.157Z,7.00
2019-05-22T05:43:15.647Z,7.50
2019-05-22T05:45:46.574Z,8.03
2019-05-22T05:48:22.476Z,7.47
2019-05-22T05:51:06.220Z,7.23
2019-05-22T05:53:56.590Z,6.20
2019-05-22T05:56:36.983Z,7.83
2019-05-22T05:59:07.442Z,7.53
2019-05-22T06:01:39.454Z,7.77
2019-05-22T06:04:08.293Z,6.77
2019-05-22T06:06:40.247Z,5.30
2019-05-22T06:09:10.625Z,7.00
2019-05-22T06:11:46.129Z,7.50
2019-05-22T06:14:23.727Z,6.30
2019-05-22T06:17:04.868Z,4.33
2019-05-22T06:19:33.381Z,4.50
2019-05-22T06:22:01.865Z,4.07
2019-05-22T06:24:36.810Z,5.43
2019-05-22T06:27:11.665Z,4.63
2019-05-22T06:29:56.843Z,4.87
2019-05-22T06:33:01.611Z,4.50
2019-05-22T06:35:36.170Z,4.70
2019-05-22T06:38:27.289Z,5.83
2019-05-22T06:40:55.797Z,5.83
2019-05-22T06:43:28.930Z,5.77
2019-05-22T06:45:57.810Z,6.60
2019-05-22T06:48:26.723Z,4.87
2019-05-22T06:50:56.369Z,5.67
2019-05-22T06:53:24.797Z,5.40
2019-05-22T06:55:53.210Z,6.03
2019-05-22T06:58:21.706Z,5.27
2019-05-22T07:00:50.782Z,4.80
2019-05-22T07:03:19.431Z,5.87
2019-05-22T07:05:49.007Z,4.43
2019-05-22T07:08:17.569Z,6.30
2019-05-22T07:10:46.544Z,4.77
2019-05-22T07:13:16.912Z,5.00
2019-05-22T07:15:46.256Z,4.27
2019-05-22T07:18:16.350Z,5.00
2019-05-22T07:20:46.595Z,5.83
2019-05-22T07:23:17.799Z,5.13
2019-05-22T07:25:47.447Z,4.47
2019-05-22T07:28:18.084Z,4.23
2019-05-22T07:30:48.768Z,4.40
2019-05-22T07:33:18.560Z,3.60
2019-05-22T07:36:07.940Z,3.70
2019-05-22T07:38:19.395Z,4.40
2019-05-22T07:40:50.341Z,5.10
2019-05-22T07:43:19.476Z,4.53
2019-05-22T07:45:48.460Z,3.87
2019-05-22T07:48:18.400Z,4.57
2019-05-22T07:50:49.971Z,4.37
2019-05-22T07:53:18.384Z,4.50
2019-05-22T07:55:49.048Z,4.47
2019-05-22T07:58:18.461Z,5.77
2019-05-22T08:00:50.921Z,4.90
2019-05-22T08:03:21.535Z,4.77
2019-05-22T08:05:55.000Z,4.47
2019-05-22T08:08:25.712Z,4.90
2019-05-22T08:10:55.969Z,5.50
2019-05-22T08:13:26.644Z,4.50
2019-05-22T08:15:55.444Z,5.13
2019-05-22T08:18:25.877Z,4.07
2019-05-22T08:20:54.313Z,4.30
2019-05-22T08:23:24.081Z,5.40
2019-05-22T08:25:52.693Z,4.80
2019-05-22T08:28:22.257Z,4.67
2019-05-22T08:30:51.337Z,5.60
2019-05-22T08:33:21.359Z,5.00
2019-05-22T08:35:50.303Z,5.30
2019-05-22T08:38:21.213Z,5.13
2019-05-22T08:40:51.377Z,3.27
2019-05-22T08:43:20.341Z,5.00
2019-05-22T08:45:49.454Z,5.10
2019-05-22T08:48:19.622Z,4.87
2019-05-22T08:50:48.245Z,6.90
2019-05-22T08:53:18.385Z,4.97
2019-05-22T08:55:47.649Z,3.93
2019-05-22T08:58:16.357Z,4.73
2019-05-22T09:00:47.017Z,4.23
2019-05-22T09:03:16.390Z,4.03
2019-05-22T09:05:45.545Z,5.60
2019-05-22T09:08:14.393Z,4.20
2019-05-22T09:10:42.871Z,4.93
2019-05-22T09:13:11.306Z,4.43
2019-05-22T09:15:40.670Z,4.57
2019-05-22T09:18:09.238Z,5.00
2019-05-22T09:20:48.686Z,5.50
2019-05-22T09:23:09.670Z,5.40
2019-05-22T09:25:38.519Z,5.60
2019-05-22T09:28:07.229Z,5.43
2019-05-22T09:30:36.583Z,5.90
2019-05-22T09:33:05.612Z,6.70
2019-05-22T09:35:34.664Z,6.17
2019-05-22T09:38:03.141Z,5.23
2019-05-22T09:40:32.932Z,6.07
2019-05-22T09:43:02.299Z,7.00
2019-05-22T09:45:31.006Z,5.33
2019-05-22T09:47:59.787Z,6.03
2019-05-22T09:50:29.053Z,5.50
2019-05-22T09:52:58.514Z,6.33
2019-05-22T09:55:27.119Z,5.90
2019-05-22T09:57:55.732Z,5.77
2019-05-22T10:00:25.120Z,5.97
2019-05-22T10:02:54.455Z,6.70
2019-05-22T10:05:22.868Z,6.17
2019-05-22T10:08:00.398Z,7.30
2019-05-22T10:10:22.762Z,5.40
2019-05-22T10:12:51.489Z,6.20
2019-05-22T10:15:20.911Z,6.57
2019-05-22T10:17:50.232Z,7.53
2019-05-22T10:20:20.506Z,6.17
2019-05-22T10:22:49.504Z,7.40
2019-05-22T10:25:18.569Z,5.20
2019-05-22T10:27:48.806Z,5.17
2019-05-22T10:30:20.719Z,5.30
2019-05-22T10:32:49.970Z,5.30
2019-05-22T10:35:22.153Z,5.50
2019-05-22T10:37:50.814Z,5.77
2019-05-22T10:40:19.874Z,5.97
2019-05-22T10:42:48.573Z,5.27
2019-05-22T10:45:17.060Z,5.03
2019-05-22T10:47:45.848Z,6.17
2019-05-22T10:50:14.563Z,6.47
2019-05-22T10:52:43.512Z,6.93
2019-05-22T10:55:14.667Z,6.00
2019-05-22T10:57:44.368Z,6.37
2019-05-22T11:03:11.356Z,6.37
2019-05-22T11:05:40.636Z,4.80
2019-05-22T11:08:09.953Z,4.80
2019-05-22T11:10:38.386Z,4.40
2019-05-22T11:13:07.535Z,5.40
2019-05-22T11:15:36.042Z,5.83
2019-05-22T11:18:05.047Z,5.00
2019-05-22T11:20:34.099Z,5.03
2019-05-22T11:23:02.973Z,4.90
2019-05-22T11:25:31.827Z,5.40
2019-05-22T11:28:00.235Z,6.10
2019-05-22T11:30:29.298Z,6.13
2019-05-22T11:32:58.927Z,6.93
2019-05-22T11:35:28.970Z,6.00
2019-05-22T11:37:57.520Z,6.63
2019-05-22T11:40:27.003Z,5.57
2019-05-22T11:42:55.424Z,6.90
2019-05-22T11:45:24.995Z,7.30
2019-05-22T11:47:53.559Z,7.40
2019-05-22T11:50:22.267Z,8.43
2019-05-22T11:52:51.227Z,6.93
2019-05-22T11:55:20.871Z,6.40
2019-05-22T11:57:49.943Z,7.53
2019-05-22T12:00:21.288Z,7.60
2019-05-22T12:02:51.617Z,7.27
2019-05-22T12:05:20.750Z,6.70
2019-05-22T12:07:50.149Z,6.00
2019-05-22T12:10:21.993Z,8.40
2019-05-22T12:12:52.841Z,6.80
2019-05-22T12:15:25.006Z,5.17
2019-05-22T12:17:53.515Z,7.23
2019-05-22T12:20:23.442Z,8.80
2019-05-22T12:22:51.937Z,8.70
2019-05-22T12:25:40.650Z,9.33
2019-05-22T12:28:09.810Z,10.10
2019-05-22T12:30:38.980Z,8.90
2019-05-22T12:33:13.675Z,6.97
2019-05-22T12:35:41.126Z,8.33
2019-05-22T12:38:10.662Z,7.50
2019-05-22T12:40:39.142Z,9.50
2019-05-22T12:43:07.590Z,9.77
2019-05-22T12:45:36.099Z,8.83
2019-05-22T12:48:05.815Z,7.23
2019-05-22T12:50:35.559Z,7.43
2019-05-22T12:53:06.751Z,8.27
2019-05-22T12:55:36.022Z,8.63
2019-05-22T12:58:05.943Z,7.70
2019-05-22T13:00:35.616Z,9.27
2019-05-22T13:03:06.588Z,9.27
2019-05-22T13:05:37.682Z,8.70
2019-05-22T13:08:07.029Z,7.87
2019-05-22T13:10:36.672Z,8.70
2019-05-22T13:13:05.238Z,7.30
2019-05-22T13:15:35.345Z,6.80
2019-05-22T13:18:05.376Z,7.17
2019-05-22T13:20:42.973Z,5.50
2019-05-22T13:23:09.174Z,6.43
2019-05-22T13:25:39.552Z,5.73
2019-05-22T13:28:29.232Z,6.83
2019-05-22T13:30:59.804Z,7.43
2019-05-22T13:33:29.386Z,7.33
2019-05-22T13:35:58.126Z,7.80
2019-05-22T13:38:27.484Z,7.93
2019-05-22T13:40:57.032Z,6.43
2019-05-22T13:43:27.525Z,7.13
2019-05-22T13:45:56.101Z,8.03
2019-05-22T13:48:25.223Z,7.13
2019-05-22T13:50:54.081Z,7.33
2019-05-22T13:53:22.884Z,5.33
2019-05-22T13:55:51.801Z,5.70
2019-05-22T13:58:21.718Z,5.90
2019-05-22T14:00:50.848Z,5.73
2019-05-22T14:03:20.727Z,5.50
2019-05-22T14:05:49.969Z,5.43
2019-05-22T14:08:18.590Z,4.80
2019-05-22T14:10:49.732Z,5.20
2019-05-22T14:13:17.476Z,4.20
2019-05-22T14:15:52.557Z,4.60
2019-05-22T14:18:16.247Z,4.53
2019-05-22T14:20:44.688Z,4.42
2019-05-22T14:23:13.859Z,3.72
2019-05-22T14:25:43.496Z,3.27
2019-05-22T14:28:13.899Z,3.45
2019-05-22T14:30:43.100Z,3.72
2019-05-22T14:33:12.529Z,3.30
2019-05-22T14:35:48.376Z,3.62
2019-05-22T14:38:13.347Z,3.50
2019-05-22T14:40:42.172Z,3.12
2019-05-22T14:43:11.192Z,3.72
2019-05-22T14:45:39.709Z,3.15
2019-05-22T14:48:09.088Z,3.55
2019-05-22T14:50:37.596Z,4.03
2019-05-22T14:53:06.189Z,4.47
2019-05-22T14:55:34.714Z,4.47
2019-05-22T14:58:05.310Z,5.87
2019-05-22T15:00:35.240Z,4.77
2019-05-22T15:03:04.813Z,4.33
2019-05-22T15:05:34.053Z,4.47
2019-05-22T15:08:03.451Z,4.37
2019-05-22T15:10:33.126Z,4.20
2019-05-22T15:13:02.425Z,4.40
2019-05-22T15:15:31.705Z,4.40
2019-05-22T15:18:00.219Z,3.63
2019-05-22T15:20:48.906Z,4.97
2019-05-22T15:23:17.318Z,4.60
2019-05-22T15:25:46.591Z,5.57
2019-05-22T15:28:15.077Z,6.30
2019-05-22T15:30:43.509Z,5.53
2019-05-22T15:33:12.581Z,7.47
2019-05-22T15:35:41.977Z,7.60
2019-05-22T15:38:12.345Z,7.23
2019-05-22T15:40:40.845Z,6.60
2019-05-22T15:43:11.413Z,7.17
2019-05-22T15:45:42.340Z,7.07
2019-05-22T15:48:15.530Z,7.37
2019-05-22T15:50:44.790Z,7.87
2019-05-22T15:53:15.306Z,8.43
2019-05-22T15:55:47.698Z,9.80
2019-05-22T15:58:17.939Z,8.93
2019-05-22T16:00:47.621Z,9.10
2019-05-22T16:03:21.081Z,9.03
2019-05-22T16:05:51.293Z,10.27
2019-05-22T16:08:19.797Z,9.70
2019-05-22T16:10:51.067Z,9.70
2019-05-22T16:13:22.710Z,9.67
2019-05-22T16:15:54.539Z,9.90
2019-05-22T16:18:29.517Z,9.00
2019-05-22T16:21:01.238Z,9.50
2019-05-22T16:23:38.339Z,9.43
2019-05-22T16:26:08.930Z,9.03
2019-05-22T16:28:39.613Z,9.70
2019-05-22T16:31:10.547Z,10.00
2019-05-22T16:33:41.620Z,9.60
2019-05-22T16:36:10.842Z,8.20
2019-05-22T16:38:39.951Z,7.57
2019-05-22T16:41:10.655Z,7.67
2019-05-22T16:43:49.085Z,8.53
2019-05-22T16:46:15.109Z,9.03
2019-05-22T16:48:44.550Z,8.60
2019-05-22T16:51:15.371Z,11.27
2019-05-22T16:53:46.862Z,9.00
2019-05-22T16:56:15.535Z,9.47
2019-05-22T16:58:44.127Z,10.57
2019-05-22T17:01:13.659Z,10.00
2019-05-22T17:03:42.446Z,10.90
2019-05-22T17:06:11.167Z,9.63
2019-05-22T17:08:39.861Z,11.77
2019-05-22T17:11:09.179Z,12.20
2019-05-22T17:13:38.669Z,11.63
2019-05-22T17:16:08.597Z,11.40
2019-05-22T17:18:46.939Z,12.07
2019-05-22T17:21:07.802Z,10.60
2019-05-22T17:23:36.346Z,8.43
2019-05-22T17:26:05.605Z,9.77
2019-05-22T17:28:34.351Z,10.30
2019-05-22T17:31:03.142Z,9.63
2019-05-22T17:33:33.677Z,9.07
2019-05-22T17:36:05.769Z,9.77
2019-05-22T17:38:33.870Z,9.00
2019-05-22T17:41:03.428Z,9.10
2019-05-22T17:43:33.786Z,8.80
2019-05-22T17:46:02.349Z,9.50
2019-05-22T17:48:32.962Z,8.90
2019-05-22T17:51:01.391Z,8.93
2019-05-22T17:53:29.930Z,8.93
2019-05-22T17:55:58.614Z,8.23
2019-05-22T17:58:29.985Z,8.47
2019-05-22T18:00:58.278Z,9.77
2019-05-22T18:03:26.818Z,9.07
2019-05-22T18:05:55.300Z,9.60
2019-05-22T18:08:23.966Z,9.87
2019-05-22T18:10:53.685Z,9.87
2019-05-22T18:13:22.107Z,10.43
2019-05-22T18:15:50.545Z,9.47
2019-05-22T18:18:19.523Z,9.53
2019-05-22T18:20:48.618Z,9.80
2019-05-22T18:23:17.056Z,9.90
2019-05-22T18:25:45.763Z,9.50
2019-05-22T18:28:15.587Z,8.73
2019-05-22T18:30:44.559Z,8.93
2019-05-22T18:33:13.954Z,10.30
2019-05-22T18:35:42.632Z,12.43
2019-05-22T18:38:11.202Z,13.07
2019-05-22T18:40:39.983Z,13.77
2019-05-22T18:43:08.689Z,13.40
2019-05-22T18:45:38.959Z,14.53
2019-05-22T18:48:07.675Z,16.13
2019-05-22T18:50:36.895Z,16.93
2019-05-22T18:53:06.467Z,18.73
2019-05-22T18:55:34.898Z,17.53
2019-05-22T18:58:03.341Z,19.43
2019-05-22T19:00:33.709Z,19.53
2019-05-22T19:03:02.621Z,18.20
2019-05-22T19:05:32.648Z,19.47
2019-05-22T19:08:01.162Z,19.17
2019-05-22T19:10:29.864Z,20.03
2019-05-22T19:12:58.646Z,17.60
2019-05-22T19:15:27.982Z,18.73
2019-05-22T19:17:56.743Z,20.60
2019-05-22T19:20:25.166Z,20.73
2019-05-22T19:23:00.458Z,17.53
2019-05-22T19:25:24.128Z,19.50
2019-05-22T19:27:52.542Z,17.20
2019-05-22T19:30:22.116Z,18.07
2019-05-22T19:32:50.847Z,16.97
2019-05-22T19:35:19.274Z,15.70
2019-05-22T19:37:47.698Z,14.77
2019-05-22T19:40:18.628Z,16.40
2019-05-22T19:42:49.314Z,16.40
2019-05-22T19:45:18.752Z,17.17
2019-05-22T19:47:52.924Z,16.47
2019-05-22T19:50:23.845Z,16.27
2019-05-22T19:52:55.111Z,17.00
2019-05-22T19:55:26.506Z,16.30
2019-05-22T19:57:55.310Z,17.67
2019-05-22T20:00:24.697Z,17.30
2019-05-22T20:02:54.911Z,17.00
2019-05-22T20:05:24.165Z,17.50
2019-05-22T20:07:53.209Z,17.63
2019-05-22T20:10:22.379Z,17.07
2019-05-22T20:12:50.819Z,19.10
2019-05-22T20:15:20.381Z,18.77
2019-05-22T20:17:48.933Z,17.93
2019-05-22T20:20:19.659Z,17.63
2019-05-22T20:22:49.599Z,16.77
2019-05-22T20:25:19.234Z,16.70
2019-05-22T20:27:48.038Z,17.20
2019-05-22T20:30:37.786Z,17.90
2019-05-22T20:33:06.592Z,17.60
2019-05-22T20:35:35.604Z,17.30
2019-05-22T20:38:04.337Z,17.37
2019-05-22T20:40:33.455Z,20.90
2019-05-22T20:43:01.965Z,17.67
2019-05-22T20:45:30.463Z,18.20
2019-05-22T20:48:08.050Z,18.20
2019-05-22T20:50:37.366Z,17.03
2019-05-22T20:53:07.528Z,15.90
2019-05-22T20:55:36.923Z,17.60
2019-05-22T20:58:06.384Z,18.20
2019-05-22T21:00:36.456Z,16.70
2019-05-22T21:03:08.180Z,20.07
2019-05-22T21:05:37.163Z,19.67
2019-05-22T21:08:08.860Z,17.70
2019-05-22T21:10:37.935Z,16.93
2019-05-22T21:13:08.135Z,17.37
2019-05-22T21:15:36.947Z,16.73
2019-05-22T21:18:05.503Z,15.33
2019-05-22T21:20:34.140Z,15.93
2019-05-22T21:23:03.602Z,14.63
2019-05-22T21:25:32.455Z,13.67
2019-05-22T21:28:01.452Z,12.63
2019-05-22T21:30:29.964Z,12.93
2019-05-22T21:32:58.556Z,11.63
2019-05-22T21:35:27.161Z,11.03
2019-05-22T21:37:56.488Z,10.10
2019-05-22T21:40:25.856Z,12.10
2019-05-22T21:42:55.606Z,11.13
2019-05-22T21:45:25.674Z,10.63
2019-05-22T21:47:54.646Z,9.60
2019-05-22T21:50:23.619Z,10.17
2019-05-22T21:52:53.639Z,9.73
2019-05-22T21:55:24.195Z,9.60
2019-05-22T21:57:53.347Z,9.30
2019-05-22T22:00:40.709Z,9.43
2019-05-22T22:03:12.600Z,10.27
2019-05-22T22:05:44.523Z,10.73
2019-05-22T22:08:13.040Z,9.27
2019-05-22T22:10:42.469Z,9.57
2019-05-22T22:13:12.523Z,9.40
2019-05-22T22:15:41.141Z,8.53
2019-05-22T22:18:12.425Z,8.33
2019-05-22T22:20:41.173Z,8.13
2019-05-22T22:23:12.497Z,7.50
2019-05-22T22:25:41.449Z,7.57
2019-05-22T22:28:12.797Z,7.13
2019-05-22T22:30:52.137Z,6.53
2019-05-22T22:33:25.204Z,6.40
2019-05-22T22:35:54.582Z,6.37
2019-05-22T22:38:25.482Z,5.90
2019-05-22T22:40:56.047Z,5.70
2019-05-22T22:43:27.942Z,7.30
2019-05-22T22:46:05.189Z,6.57
2019-05-22T22:48:40.690Z,6.07
2019-05-22T22:51:12.509Z,6.37
2019-05-22T22:53:43.892Z,5.93
2019-05-22T22:56:13.006Z,6.30
2019-05-22T22:58:42.386Z,6.20
2019-05-22T23:01:15.050Z,6.67
2019-05-22T23:03:47.143Z,6.00
2019-05-22T23:06:17.095Z,5.80
2019-05-22T23:08:47.727Z,6.10
2019-05-22T23:11:17.068Z,5.67
2019-05-22T23:13:45.973Z,6.37
2019-05-22T23:16:15.930Z,6.00
2019-05-22T23:19:06.695Z,6.33
2019-05-22T23:21:35.671Z,6.13
2019-05-22T23:24:04.177Z,5.37
2019-05-22T23:26:34.387Z,5.30
2019-05-22T23:29:03.156Z,5.90
2019-05-22T23:31:33.195Z,5.97
2019-05-22T23:34:03.027Z,5.27
2019-05-22T23:36:33.151Z,6.10
2019-05-22T23:39:06.110Z,5.20
2019-05-22T23:41:36.955Z,5.70
2019-05-22T23:44:08.790Z,5.10
2019-05-22T23:46:38.234Z,5.20
2019-05-22T23:49:06.647Z,5.77
2019-05-22T23:51:35.308Z,6.00
2019-05-22T23:54:05.841Z,4.80
2019-05-22T23:56:36.447Z,5.17
2019-05-22T23:59:05.156Z,5.20
